首页
METAR-TAF:

METAR-TAF

机场 :

東京國際機場

东京国际机场, 日本

纬度: 35-33N, 经度: 139-47E, 海拔: 5米

当前天气观测

该预报发布于28分钟前的17:30 UTC
风速6节,风向南转西南
温度 21°C
湿度 88%
气压 1004 hPa
能见度10公里或以上
少量云层高于1000英尺
多云层高于20000英尺

METAR: RJTT 231730Z 20006KT 9999 FEW010 BKN200 21/19 Q1004 NOSIG RMK 1ST010 7AC200 A2965

时间: 02:58 (17:58 UTC)

预报

该预报发布于47分钟前的17:11 UTC
预报有效从23日的 18点(UTC)到 25日的 00点(UTC)
风速10节,风向南转西南
能見度: 9000
少量云层高于1000英尺
多云层高于2500英尺
成为
从 23日的 21点(UTC)到 23日的 23点(UTC)
风速8节,风向东北
成为
从 24日的 02点(UTC)到 24日的 04点(UTC)
风速6节,风向东转东南
成为
从 24日的 06点(UTC)到 24日的 09点(UTC)
风速12节,风向
成为
从 24日的 21点(UTC)到 25日的 00点(UTC)
风速6节,风向

TAF: RJTT 231711Z 2318/2500 20010KT 9000 FEW010 BKN025 BECMG 2321/2323 04008KT BECMG 2402/2404 12006KT BECMG 2406/2409 19012KT BECMG 2421/2500 09006KT

超过4000个机场的气象观测和天气预报(METAR&TAF报告)。

可查询的气象台以黄色和红色小点在地图上表示。

将鼠标移到小点上方,可查看气象台名称。

然后点击查看天气观测和预报。

如需切换地图:点击带黑十字的绿色按钮放大地图;点击带横线的绿色按钮缩小地图;或者点击绿色箭头查看邻近地区的地图。


METAR-TAF: